Terminal Aerodrome Forecast
Issued by NWS Sterling, VA

Current Version | Previous Version | Text Only | Print | Product List | Glossary Off
Versions: 1 2 3 4 5 6 7 8 9 10 11 12 13 14 15 16

736
FTUS41 KLWX 261129
TAFMRB
TAF
KMRB 261129Z 2612/2712 VRB04KT P6SM BKN040
     FM261300 27011G20KT P6SM BKN040
     FM261600 29016G23KT P6SM BKN040
     FM262300 30010KT P6SM SCT050
     FM270800 VRB03KT P6SM BKN130=

USA.gov is the U.S. government's official web portal to all federal, state and local government web resources and services.